sensor_id;sensor_type;location;lat;lon;timestamp;P1;durP1;ratioP1;P2;durP2;ratioP2
52838;SDS011;39219;53.678;9.856;2023-03-20T00:01:09;78.95;;;24.30;;
52838;SDS011;39219;53.678;9.856;2023-03-20T00:03:36;82.03;;;25.38;;
52838;SDS011;39219;53.678;9.856;2023-03-20T00:06:03;74.22;;;24.90;;
52838;SDS011;39219;53.678;9.856;2023-03-20T00:08:29;80.40;;;24.67;;
52838;SDS011;39219;53.678;9.856;2023-03-20T00:10:56;76.70;;;24.73;;
52838;SDS011;39219;53.678;9.856;2023-03-20T00:13:24;66.55;;;22.98;;
52838;SDS011;39219;53.678;9.856;2023-03-20T00:15:52;73.22;;;24.48;;
52838;SDS011;39219;53.678;9.856;2023-03-20T00:18:19;77.40;;;25.10;;
52838;SDS011;39219;53.678;9.856;2023-03-20T00:20:47;76.32;;;24.13;;
52838;SDS011;39219;53.678;9.856;2023-03-20T00:23:14;76.05;;;24.42;;
52838;SDS011;39219;53.678;9.856;2023-03-20T00:25:40;77.38;;;24.67;;
52838;SDS011;39219;53.678;9.856;2023-03-20T00:28:27;68.65;;;23.30;;
52838;SDS011;39219;53.678;9.856;2023-03-20T00:30:55;72.80;;;24.52;;
52838;SDS011;39219;53.678;9.856;2023-03-20T00:33:21;71.65;;;24.05;;
52838;SDS011;39219;53.678;9.856;2023-03-20T00:35:47;68.63;;;22.73;;
52838;SDS011;39219;53.678;9.856;2023-03-20T00:38:14;69.50;;;23.60;;
52838;SDS011;39219;53.678;9.856;2023-03-20T00:40:40;73.78;;;23.67;;
52838;SDS011;39219;53.678;9.856;2023-03-20T00:43:08;66.75;;;22.65;;
52838;SDS011;39219;53.678;9.856;2023-03-20T00:45:36;70.68;;;22.58;;
52838;SDS011;39219;53.678;9.856;2023-03-20T00:48:03;66.25;;;22.70;;
52838;SDS011;39219;53.678;9.856;2023-03-20T00:50:30;71.75;;;23.42;;
52838;SDS011;39219;53.678;9.856;2023-03-20T00:52:56;67.45;;;23.33;;
52838;SDS011;39219;53.678;9.856;2023-03-20T00:55:25;65.88;;;22.42;;
52838;SDS011;39219;53.678;9.856;2023-03-20T00:57:53;68.75;;;23.15;;
52838;SDS011;39219;53.678;9.856;2023-03-20T01:00:22;66.55;;;22.08;;
52838;SDS011;39219;53.678;9.856;2023-03-20T01:02:51;69.60;;;22.50;;
52838;SDS011;39219;53.678;9.856;2023-03-20T01:05:18;70.90;;;22.40;;
52838;SDS011;39219;53.678;9.856;2023-03-20T01:07:44;65.13;;;22.55;;
52838;SDS011;39219;53.678;9.856;2023-03-20T01:10:10;65.32;;;21.63;;
52838;SDS011;39219;53.678;9.856;2023-03-20T01:12:37;57.50;;;21.25;;
52838;SDS011;39219;53.678;9.856;2023-03-20T01:15:05;55.33;;;20.85;;
52838;SDS011;39219;53.678;9.856;2023-03-20T01:17:35;54.72;;;19.30;;
52838;SDS011;39219;53.678;9.856;2023-03-20T01:20:08;43.15;;;16.80;;
52838;SDS011;39219;53.678;9.856;2023-03-20T01:22:35;46.30;;;17.63;;
52838;SDS011;39219;53.678;9.856;2023-03-20T01:25:02;45.13;;;16.98;;
52838;SDS011;39219;53.678;9.856;2023-03-20T01:27:28;44.03;;;16.67;;
52838;SDS011;39219;53.678;9.856;2023-03-20T01:29:56;45.05;;;16.33;;
52838;SDS011;39219;53.678;9.856;2023-03-20T01:32:22;41.53;;;16.02;;
52838;SDS011;39219;53.678;9.856;2023-03-20T01:34:48;39.90;;;16.00;;
52838;SDS011;39219;53.678;9.856;2023-03-20T01:37:17;34.83;;;14.63;;
52838;SDS011;39219;53.678;9.856;2023-03-20T01:39:48;37.35;;;15.15;;
52838;SDS011;39219;53.678;9.856;2023-03-20T01:42:14;36.13;;;15.15;;
52838;SDS011;39219;53.678;9.856;2023-03-20T01:44:42;39.40;;;15.38;;
52838;SDS011;39219;53.678;9.856;2023-03-20T01:47:11;40.67;;;15.15;;
52838;SDS011;39219;53.678;9.856;2023-03-20T01:52:26;38.28;;;15.25;;
52838;SDS011;39219;53.678;9.856;2023-03-20T01:54:52;37.40;;;14.35;;
52838;SDS011;39219;53.678;9.856;2023-03-20T01:57:19;38.38;;;15.00;;
52838;SDS011;39219;53.678;9.856;2023-03-20T01:59:47;41.38;;;14.90;;
52838;SDS011;39219;53.678;9.856;2023-03-20T02:02:16;39.70;;;15.00;;
52838;SDS011;39219;53.678;9.856;2023-03-20T02:04:44;41.80;;;14.77;;
52838;SDS011;39219;53.678;9.856;2023-03-20T02:07:11;32.00;;;12.88;;
52838;SDS011;39219;53.678;9.856;2023-03-20T02:09:40;37.05;;;13.63;;
52838;SDS011;39219;53.678;9.856;2023-03-20T02:12:06;34.00;;;12.85;;
52838;SDS011;39219;53.678;9.856;2023-03-20T02:14:32;31.08;;;12.07;;
52838;SDS011;39219;53.678;9.856;2023-03-20T02:16:59;33.42;;;12.25;;
52838;SDS011;39219;53.678;9.856;2023-03-20T02:19:26;30.42;;;11.32;;
52838;SDS011;39219;53.678;9.856;2023-03-20T02:22:11;29.80;;;10.90;;
52838;SDS011;39219;53.678;9.856;2023-03-20T02:24:57;26.42;;;10.38;;
52838;SDS011;39219;53.678;9.856;2023-03-20T02:27:29;28.65;;;10.07;;
52838;SDS011;39219;53.678;9.856;2023-03-20T02:30:17;20.65;;;8.27;;
52838;SDS011;39219;53.678;9.856;2023-03-20T02:35:43;17.00;;;7.03;;
52838;SDS011;39219;53.678;9.856;2023-03-20T02:38:35;17.95;;;6.28;;
52838;SDS011;39219;53.678;9.856;2023-03-20T02:41:06;14.05;;;5.95;;
52838;SDS011;39219;53.678;9.856;2023-03-20T02:43:40;15.85;;;5.88;;
52838;SDS011;39219;53.678;9.856;2023-03-20T02:46:10;14.00;;;5.68;;
52838;SDS011;39219;53.678;9.856;2023-03-20T02:48:38;15.13;;;6.18;;
52838;SDS011;39219;53.678;9.856;2023-03-20T02:51:09;12.57;;;5.32;;
52838;SDS011;39219;53.678;9.856;2023-03-20T02:53:41;12.82;;;5.30;;
52838;SDS011;39219;53.678;9.856;2023-03-20T02:56:10;13.55;;;5.90;;
52838;SDS011;39219;53.678;9.856;2023-03-20T02:58:42;12.85;;;5.28;;
52838;SDS011;39219;53.678;9.856;2023-03-20T03:01:13;14.07;;;6.13;;
52838;SDS011;39219;53.678;9.856;2023-03-20T03:03:42;13.93;;;5.95;;
52838;SDS011;39219;53.678;9.856;2023-03-20T03:06:09;12.82;;;5.82;;
52838;SDS011;39219;53.678;9.856;2023-03-20T03:08:39;14.63;;;6.03;;
52838;SDS011;39219;53.678;9.856;2023-03-20T03:11:08;14.68;;;6.07;;
52838;SDS011;39219;53.678;9.856;2023-03-20T03:13:36;16.25;;;6.65;;
52838;SDS011;39219;53.678;9.856;2023-03-20T03:16:04;13.77;;;5.95;;
52838;SDS011;39219;53.678;9.856;2023-03-20T03:18:32;13.25;;;5.32;;
52838;SDS011;39219;53.678;9.856;2023-03-20T03:20:59;12.35;;;5.40;;
52838;SDS011;39219;53.678;9.856;2023-03-20T03:23:28;12.20;;;5.68;;
52838;SDS011;39219;53.678;9.856;2023-03-20T03:25:57;12.23;;;5.63;;
52838;SDS011;39219;53.678;9.856;2023-03-20T03:28:26;12.32;;;5.10;;
52838;SDS011;39219;53.678;9.856;2023-03-20T03:30:53;11.02;;;5.20;;
52838;SDS011;39219;53.678;9.856;2023-03-20T03:33:22;11.38;;;4.80;;
52838;SDS011;39219;53.678;9.856;2023-03-20T03:35:48;11.05;;;5.10;;
52838;SDS011;39219;53.678;9.856;2023-03-20T03:38:20;11.30;;;4.97;;
52838;SDS011;39219;53.678;9.856;2023-03-20T03:40:50;11.88;;;5.00;;
52838;SDS011;39219;53.678;9.856;2023-03-20T03:43:21;11.23;;;5.03;;
52838;SDS011;39219;53.678;9.856;2023-03-20T03:45:50;11.18;;;5.00;;
52838;SDS011;39219;53.678;9.856;2023-03-20T03:48:20;10.10;;;4.68;;
52838;SDS011;39219;53.678;9.856;2023-03-20T03:50:47;11.02;;;4.90;;
52838;SDS011;39219;53.678;9.856;2023-03-20T03:53:16;11.05;;;4.63;;
52838;SDS011;39219;53.678;9.856;2023-03-20T03:55:43;10.20;;;4.95;;
52838;SDS011;39219;53.678;9.856;2023-03-20T03:58:12;11.05;;;4.75;;
52838;SDS011;39219;53.678;9.856;2023-03-20T04:00:42;9.88;;;3.92;;
52838;SDS011;39219;53.678;9.856;2023-03-20T04:03:10;8.45;;;3.90;;
52838;SDS011;39219;53.678;9.856;2023-03-20T04:05:37;8.45;;;3.72;;
52838;SDS011;39219;53.678;9.856;2023-03-20T04:08:06;8.65;;;3.80;;
52838;SDS011;39219;53.678;9.856;2023-03-20T04:10:32;8.35;;;3.80;;
52838;SDS011;39219;53.678;9.856;2023-03-20T04:12:58;8.43;;;3.67;;
52838;SDS011;39219;53.678;9.856;2023-03-20T04:15:25;7.70;;;3.65;;
52838;SDS011;39219;53.678;9.856;2023-03-20T04:17:53;9.38;;;4.03;;
52838;SDS011;39219;53.678;9.856;2023-03-20T04:20:20;7.63;;;3.92;;
52838;SDS011;39219;53.678;9.856;2023-03-20T04:22:46;8.57;;;3.97;;
52838;SDS011;39219;53.678;9.856;2023-03-20T04:25:15;9.52;;;4.35;;
52838;SDS011;39219;53.678;9.856;2023-03-20T04:27:41;12.10;;;4.80;;
52838;SDS011;39219;53.678;9.856;2023-03-20T04:30:08;12.35;;;5.40;;
52838;SDS011;39219;53.678;9.856;2023-03-20T04:32:35;12.25;;;5.70;;
52838;SDS011;39219;53.678;9.856;2023-03-20T04:35:03;13.00;;;6.25;;
52838;SDS011;39219;53.678;9.856;2023-03-20T04:37:29;14.30;;;6.13;;
52838;SDS011;39219;53.678;9.856;2023-03-20T04:39:55;13.57;;;6.40;;
52838;SDS011;39219;53.678;9.856;2023-03-20T04:42:21;15.02;;;6.88;;
52838;SDS011;39219;53.678;9.856;2023-03-20T04:44:48;16.00;;;7.68;;
52838;SDS011;39219;53.678;9.856;2023-03-20T04:47:14;17.95;;;7.18;;
52838;SDS011;39219;53.678;9.856;2023-03-20T04:49:40;17.15;;;7.03;;
52838;SDS011;39219;53.678;9.856;2023-03-20T04:52:08;17.55;;;7.47;;
52838;SDS011;39219;53.678;9.856;2023-03-20T04:54:34;16.85;;;7.25;;
52838;SDS011;39219;53.678;9.856;2023-03-20T04:57:01;14.93;;;6.95;;
52838;SDS011;39219;53.678;9.856;2023-03-20T04:59:27;14.77;;;6.63;;
52838;SDS011;39219;53.678;9.856;2023-03-20T05:01:53;14.27;;;6.65;;
52838;SDS011;39219;53.678;9.856;2023-03-20T05:04:19;13.80;;;6.20;;
52838;SDS011;39219;53.678;9.856;2023-03-20T05:06:46;13.88;;;6.38;;
52838;SDS011;39219;53.678;9.856;2023-03-20T05:09:14;11.93;;;5.78;;
52838;SDS011;39219;53.678;9.856;2023-03-20T05:11:41;12.00;;;5.68;;
52838;SDS011;39219;53.678;9.856;2023-03-20T05:14:07;12.48;;;5.35;;
52838;SDS011;39219;53.678;9.856;2023-03-20T05:16:34;11.95;;;5.55;;
52838;SDS011;39219;53.678;9.856;2023-03-20T05:19:00;11.85;;;5.53;;
52838;SDS011;39219;53.678;9.856;2023-03-20T05:21:26;14.43;;;5.72;;
52838;SDS011;39219;53.678;9.856;2023-03-20T05:23:53;11.30;;;5.45;;
52838;SDS011;39219;53.678;9.856;2023-03-20T05:26:20;12.57;;;5.55;;
52838;SDS011;39219;53.678;9.856;2023-03-20T05:28:47;12.98;;;5.47;;
52838;SDS011;39219;53.678;9.856;2023-03-20T05:31:13;12.77;;;5.88;;
52838;SDS011;39219;53.678;9.856;2023-03-20T05:33:39;10.75;;;5.05;;
52838;SDS011;39219;53.678;9.856;2023-03-20T05:36:06;11.95;;;5.85;;
52838;SDS011;39219;53.678;9.856;2023-03-20T05:38:32;10.75;;;5.30;;
52838;SDS011;39219;53.678;9.856;2023-03-20T05:40:59;10.88;;;5.35;;
52838;SDS011;39219;53.678;9.856;2023-03-20T05:43:26;10.45;;;5.13;;
52838;SDS011;39219;53.678;9.856;2023-03-20T05:45:53;11.95;;;5.47;;
52838;SDS011;39219;53.678;9.856;2023-03-20T05:48:20;12.35;;;5.50;;
52838;SDS011;39219;53.678;9.856;2023-03-20T05:50:46;12.65;;;5.57;;
52838;SDS011;39219;53.678;9.856;2023-03-20T05:53:12;12.68;;;5.35;;
52838;SDS011;39219;53.678;9.856;2023-03-20T05:55:38;13.07;;;5.65;;
52838;SDS011;39219;53.678;9.856;2023-03-20T05:58:06;11.43;;;5.32;;
52838;SDS011;39219;53.678;9.856;2023-03-20T06:00:33;13.27;;;5.70;;
52838;SDS011;39219;53.678;9.856;2023-03-20T06:03:00;14.00;;;5.82;;
52838;SDS011;39219;53.678;9.856;2023-03-20T06:05:26;15.82;;;6.93;;
52838;SDS011;39219;53.678;9.856;2023-03-20T06:07:52;16.35;;;7.00;;
52838;SDS011;39219;53.678;9.856;2023-03-20T06:10:18;18.00;;;6.88;;
52838;SDS011;39219;53.678;9.856;2023-03-20T06:12:45;15.38;;;7.07;;
52838;SDS011;39219;53.678;9.856;2023-03-20T06:15:11;18.13;;;7.35;;
52838;SDS011;39219;53.678;9.856;2023-03-20T06:17:39;17.00;;;7.30;;
52838;SDS011;39219;53.678;9.856;2023-03-20T06:20:06;19.42;;;7.53;;
52838;SDS011;39219;53.678;9.856;2023-03-20T06:22:33;18.20;;;7.20;;
52838;SDS011;39219;53.678;9.856;2023-03-20T06:25:00;15.05;;;7.07;;
52838;SDS011;39219;53.678;9.856;2023-03-20T06:27:26;21.10;;;8.80;;
52838;SDS011;39219;53.678;9.856;2023-03-20T06:29:52;18.00;;;7.85;;
52838;SDS011;39219;53.678;9.856;2023-03-20T06:32:19;21.33;;;8.82;;
52838;SDS011;39219;53.678;9.856;2023-03-20T06:34:46;21.20;;;8.65;;
52838;SDS011;39219;53.678;9.856;2023-03-20T06:37:13;20.27;;;8.27;;
52838;SDS011;39219;53.678;9.856;2023-03-20T06:39:40;22.80;;;8.90;;
52838;SDS011;39219;53.678;9.856;2023-03-20T06:42:06;20.75;;;8.80;;
52838;SDS011;39219;53.678;9.856;2023-03-20T06:44:32;21.17;;;8.70;;
52838;SDS011;39219;53.678;9.856;2023-03-20T06:46:58;21.90;;;8.75;;
52838;SDS011;39219;53.678;9.856;2023-03-20T06:49:25;20.13;;;8.57;;
52838;SDS011;39219;53.678;9.856;2023-03-20T06:51:53;19.58;;;8.30;;
52838;SDS011;39219;53.678;9.856;2023-03-20T06:54:19;17.60;;;7.60;;
52838;SDS011;39219;53.678;9.856;2023-03-20T06:56:46;18.65;;;8.30;;
52838;SDS011;39219;53.678;9.856;2023-03-20T06:59:12;21.85;;;8.57;;
52838;SDS011;39219;53.678;9.856;2023-03-20T07:01:38;22.33;;;8.82;;
52838;SDS011;39219;53.678;9.856;2023-03-20T07:04:04;21.15;;;8.70;;
52838;SDS011;39219;53.678;9.856;2023-03-20T07:06:31;18.95;;;8.23;;
52838;SDS011;39219;53.678;9.856;2023-03-20T07:08:59;18.67;;;8.43;;
52838;SDS011;39219;53.678;9.856;2023-03-20T07:11:25;18.25;;;8.13;;
52838;SDS011;39219;53.678;9.856;2023-03-20T07:13:52;17.85;;;7.85;;
52838;SDS011;39219;53.678;9.856;2023-03-20T07:16:18;17.27;;;7.93;;
52838;SDS011;39219;53.678;9.856;2023-03-20T07:18:45;17.23;;;7.53;;
52838;SDS011;39219;53.678;9.856;2023-03-20T07:21:12;16.15;;;7.40;;
52838;SDS011;39219;53.678;9.856;2023-03-20T07:23:41;16.45;;;7.38;;
52838;SDS011;39219;53.678;9.856;2023-03-20T07:26:09;16.73;;;7.60;;
52838;SDS011;39219;53.678;9.856;2023-03-20T07:28:36;17.48;;;7.38;;
52838;SDS011;39219;53.678;9.856;2023-03-20T07:31:02;14.02;;;6.88;;
52838;SDS011;39219;53.678;9.856;2023-03-20T07:33:29;15.43;;;7.10;;
52838;SDS011;39219;53.678;9.856;2023-03-20T07:35:55;16.13;;;6.60;;
52838;SDS011;39219;53.678;9.856;2023-03-20T07:38:21;16.30;;;6.47;;
52838;SDS011;39219;53.678;9.856;2023-03-20T07:40:48;14.40;;;6.68;;
52838;SDS011;39219;53.678;9.856;2023-03-20T07:43:15;15.15;;;6.43;;
52838;SDS011;39219;53.678;9.856;2023-03-20T07:45:42;17.20;;;6.90;;
52838;SDS011;39219;53.678;9.856;2023-03-20T07:48:08;14.05;;;6.60;;
52838;SDS011;39219;53.678;9.856;2023-03-20T07:50:35;15.75;;;6.85;;
52838;SDS011;39219;53.678;9.856;2023-03-20T07:53:01;14.38;;;6.72;;
52838;SDS011;39219;53.678;9.856;2023-03-20T07:55:27;15.90;;;6.75;;
52838;SDS011;39219;53.678;9.856;2023-03-20T07:57:54;15.88;;;7.05;;
52838;SDS011;39219;53.678;9.856;2023-03-20T08:00:21;13.48;;;6.75;;
52838;SDS011;39219;53.678;9.856;2023-03-20T08:02:48;14.00;;;6.97;;
52838;SDS011;39219;53.678;9.856;2023-03-20T08:05:14;13.88;;;6.43;;
52838;SDS011;39219;53.678;9.856;2023-03-20T08:07:40;13.77;;;6.72;;
52838;SDS011;39219;53.678;9.856;2023-03-20T08:10:07;14.35;;;6.80;;
52838;SDS011;39219;53.678;9.856;2023-03-20T08:12:33;15.80;;;6.88;;
52838;SDS011;39219;53.678;9.856;2023-03-20T08:15:00;14.75;;;6.53;;
52838;SDS011;39219;53.678;9.856;2023-03-20T08:17:28;17.35;;;7.00;;
52838;SDS011;39219;53.678;9.856;2023-03-20T08:19:54;17.17;;;7.07;;
52838;SDS011;39219;53.678;9.856;2023-03-20T08:22:20;14.13;;;6.50;;
52838;SDS011;39219;53.678;9.856;2023-03-20T08:24:47;13.75;;;6.25;;
52838;SDS011;39219;53.678;9.856;2023-03-20T08:27:13;15.05;;;6.85;;
52838;SDS011;39219;53.678;9.856;2023-03-20T08:29:39;13.63;;;6.50;;
52838;SDS011;39219;53.678;9.856;2023-03-20T08:32:05;13.13;;;5.90;;
52838;SDS011;39219;53.678;9.856;2023-03-20T08:34:33;13.35;;;6.90;;
52838;SDS011;39219;53.678;9.856;2023-03-20T08:37:01;15.18;;;6.15;;
52838;SDS011;39219;53.678;9.856;2023-03-20T08:39:27;12.80;;;6.20;;
52838;SDS011;39219;53.678;9.856;2023-03-20T08:41:54;13.73;;;5.95;;
52838;SDS011;39219;53.678;9.856;2023-03-20T08:44:20;11.13;;;5.38;;
52838;SDS011;39219;53.678;9.856;2023-03-20T08:46:46;12.07;;;5.95;;
52838;SDS011;39219;53.678;9.856;2023-03-20T08:49:12;13.23;;;6.13;;
52838;SDS011;39219;53.678;9.856;2023-03-20T08:51:40;14.73;;;5.95;;
52838;SDS011;39219;53.678;9.856;2023-03-20T08:54:07;11.02;;;5.60;;
52838;SDS011;39219;53.678;9.856;2023-03-20T08:56:33;12.82;;;5.85;;
52838;SDS011;39219;53.678;9.856;2023-03-20T08:58:59;13.75;;;5.78;;
52838;SDS011;39219;53.678;9.856;2023-03-20T09:01:26;12.57;;;5.50;;
52838;SDS011;39219;53.678;9.856;2023-03-20T09:03:52;14.32;;;6.18;;
52838;SDS011;39219;53.678;9.856;2023-03-20T09:06:18;12.02;;;5.63;;
52838;SDS011;39219;53.678;9.856;2023-03-20T09:08:46;13.13;;;5.60;;
52838;SDS011;39219;53.678;9.856;2023-03-20T09:11:13;10.70;;;5.30;;
52838;SDS011;39219;53.678;9.856;2023-03-20T09:13:39;11.30;;;5.32;;
52838;SDS011;39219;53.678;9.856;2023-03-20T09:16:05;13.05;;;5.63;;
52838;SDS011;39219;53.678;9.856;2023-03-20T09:18:32;10.85;;;5.28;;
52838;SDS011;39219;53.678;9.856;2023-03-20T09:20:58;13.43;;;5.50;;
52838;SDS011;39219;53.678;9.856;2023-03-20T09:23:25;14.25;;;5.95;;
52838;SDS011;39219;53.678;9.856;2023-03-20T09:25:52;13.10;;;5.95;;
52838;SDS011;39219;53.678;9.856;2023-03-20T09:28:19;14.65;;;6.00;;
52838;SDS011;39219;53.678;9.856;2023-03-20T09:30:45;14.32;;;6.47;;
52838;SDS011;39219;53.678;9.856;2023-03-20T09:33:11;11.88;;;6.00;;
52838;SDS011;39219;53.678;9.856;2023-03-20T09:35:39;12.43;;;5.45;;
52838;SDS011;39219;53.678;9.856;2023-03-20T09:38:05;14.07;;;6.10;;
52838;SDS011;39219;53.678;9.856;2023-03-20T09:40:35;12.25;;;5.45;;
52838;SDS011;39219;53.678;9.856;2023-03-20T09:43:06;12.20;;;5.78;;
52838;SDS011;39219;53.678;9.856;2023-03-20T09:45:38;11.48;;;5.68;;
52838;SDS011;39219;53.678;9.856;2023-03-20T09:48:09;13.77;;;6.13;;
52838;SDS011;39219;53.678;9.856;2023-03-20T09:50:40;12.88;;;6.43;;
52838;SDS011;39219;53.678;9.856;2023-03-20T09:53:09;12.50;;;5.97;;
52838;SDS011;39219;53.678;9.856;2023-03-20T09:55:36;14.20;;;5.95;;
52838;SDS011;39219;53.678;9.856;2023-03-20T09:58:08;12.48;;;6.43;;
52838;SDS011;39219;53.678;9.856;2023-03-20T10:00:35;17.65;;;7.60;;
52838;SDS011;39219;53.678;9.856;2023-03-20T10:03:02;17.48;;;7.18;;
52838;SDS011;39219;53.678;9.856;2023-03-20T10:05:30;15.70;;;7.35;;
52838;SDS011;39219;53.678;9.856;2023-03-20T10:07:58;16.75;;;6.70;;
52838;SDS011;39219;53.678;9.856;2023-03-20T10:10:26;17.38;;;6.90;;
52838;SDS011;39219;53.678;9.856;2023-03-20T10:12:59;15.55;;;7.00;;
52838;SDS011;39219;53.678;9.856;2023-03-20T10:15:32;17.98;;;6.78;;
52838;SDS011;39219;53.678;9.856;2023-03-20T10:18:01;18.38;;;7.60;;
52838;SDS011;39219;53.678;9.856;2023-03-20T10:20:32;15.48;;;6.90;;
52838;SDS011;39219;53.678;9.856;2023-03-20T10:23:01;14.50;;;6.55;;
52838;SDS011;39219;53.678;9.856;2023-03-20T10:25:31;15.63;;;6.40;;
52838;SDS011;39219;53.678;9.856;2023-03-20T10:27:59;15.88;;;7.10;;
52838;SDS011;39219;53.678;9.856;2023-03-20T10:30:32;17.27;;;7.03;;
52838;SDS011;39219;53.678;9.856;2023-03-20T10:33:04;17.67;;;6.97;;
52838;SDS011;39219;53.678;9.856;2023-03-20T10:35:32;16.98;;;7.40;;
52838;SDS011;39219;53.678;9.856;2023-03-20T10:38:06;15.10;;;6.70;;
52838;SDS011;39219;53.678;9.856;2023-03-20T10:40:34;14.40;;;7.07;;
52838;SDS011;39219;53.678;9.856;2023-03-20T10:43:04;18.40;;;7.43;;
52838;SDS011;39219;53.678;9.856;2023-03-20T10:45:35;16.00;;;7.32;;
52838;SDS011;39219;53.678;9.856;2023-03-20T10:48:03;15.63;;;7.47;;
52838;SDS011;39219;53.678;9.856;2023-03-20T10:50:32;15.45;;;6.97;;
52838;SDS011;39219;53.678;9.856;2023-03-20T10:53:00;17.52;;;7.28;;
52838;SDS011;39219;53.678;9.856;2023-03-20T10:55:29;15.85;;;7.28;;
52838;SDS011;39219;53.678;9.856;2023-03-20T10:57:59;16.08;;;7.30;;
52838;SDS011;39219;53.678;9.856;2023-03-20T11:00:27;17.17;;;7.40;;
52838;SDS011;39219;53.678;9.856;2023-03-20T11:02:55;14.98;;;7.25;;
52838;SDS011;39219;53.678;9.856;2023-03-20T11:05:22;18.27;;;7.25;;
52838;SDS011;39219;53.678;9.856;2023-03-20T11:07:49;13.52;;;6.97;;
52838;SDS011;39219;53.678;9.856;2023-03-20T11:10:16;15.10;;;7.25;;
52838;SDS011;39219;53.678;9.856;2023-03-20T11:12:43;15.18;;;7.28;;
52838;SDS011;39219;53.678;9.856;2023-03-20T11:15:14;16.42;;;7.22;;
52838;SDS011;39219;53.678;9.856;2023-03-20T11:17:40;13.95;;;6.90;;
52838;SDS011;39219;53.678;9.856;2023-03-20T11:20:09;14.82;;;7.20;;
52838;SDS011;39219;53.678;9.856;2023-03-20T11:22:35;16.63;;;7.28;;
52838;SDS011;39219;53.678;9.856;2023-03-20T11:25:02;14.93;;;7.15;;
52838;SDS011;39219;53.678;9.856;2023-03-20T11:27:30;14.80;;;7.18;;
52838;SDS011;39219;53.678;9.856;2023-03-20T11:29:57;14.55;;;6.82;;
52838;SDS011;39219;53.678;9.856;2023-03-20T11:32:26;15.85;;;7.25;;
52838;SDS011;39219;53.678;9.856;2023-03-20T11:34:53;14.48;;;6.60;;
52838;SDS011;39219;53.678;9.856;2023-03-20T11:37:23;16.05;;;6.85;;
52838;SDS011;39219;53.678;9.856;2023-03-20T11:39:57;12.25;;;6.22;;
52838;SDS011;39219;53.678;9.856;2023-03-20T11:42:24;14.65;;;6.72;;
52838;SDS011;39219;53.678;9.856;2023-03-20T11:44:58;15.43;;;6.38;;
52838;SDS011;39219;53.678;9.856;2023-03-20T11:47:25;14.52;;;6.57;;
52838;SDS011;39219;53.678;9.856;2023-03-20T11:49:53;15.65;;;6.70;;
52838;SDS011;39219;53.678;9.856;2023-03-20T11:52:20;16.30;;;6.68;;
52838;SDS011;39219;53.678;9.856;2023-03-20T11:54:49;13.40;;;6.68;;
52838;SDS011;39219;53.678;9.856;2023-03-20T11:57:25;13.57;;;5.70;;
52838;SDS011;39219;53.678;9.856;2023-03-20T11:59:53;14.05;;;6.50;;
52838;SDS011;39219;53.678;9.856;2023-03-20T12:02:20;13.75;;;6.68;;
52838;SDS011;39219;53.678;9.856;2023-03-20T12:04:48;14.02;;;7.00;;
52838;SDS011;39219;53.678;9.856;2023-03-20T12:07:15;14.80;;;6.15;;
52838;SDS011;39219;53.678;9.856;2023-03-20T12:09:43;13.82;;;6.15;;
52838;SDS011;39219;53.678;9.856;2023-03-20T12:12:14;16.58;;;6.97;;
52838;SDS011;39219;53.678;9.856;2023-03-20T12:14:45;15.70;;;6.88;;
52838;SDS011;39219;53.678;9.856;2023-03-20T12:17:18;13.63;;;6.60;;
52838;SDS011;39219;53.678;9.856;2023-03-20T12:19:46;14.70;;;6.45;;
52838;SDS011;39219;53.678;9.856;2023-03-20T12:22:14;13.90;;;6.55;;
52838;SDS011;39219;53.678;9.856;2023-03-20T12:24:44;14.07;;;6.22;;
52838;SDS011;39219;53.678;9.856;2023-03-20T12:27:16;13.88;;;6.72;;
52838;SDS011;39219;53.678;9.856;2023-03-20T12:29:45;15.02;;;6.15;;
52838;SDS011;39219;53.678;9.856;2023-03-20T12:32:13;15.50;;;6.45;;
52838;SDS011;39219;53.678;9.856;2023-03-20T12:34:42;14.38;;;6.70;;
52838;SDS011;39219;53.678;9.856;2023-03-20T12:37:10;15.38;;;6.32;;
52838;SDS011;39219;53.678;9.856;2023-03-20T12:39:38;15.18;;;6.57;;
52838;SDS011;39219;53.678;9.856;2023-03-20T12:42:08;12.52;;;6.25;;
52838;SDS011;39219;53.678;9.856;2023-03-20T12:44:39;13.48;;;6.40;;
52838;SDS011;39219;53.678;9.856;2023-03-20T12:47:14;13.27;;;6.00;;
52838;SDS011;39219;53.678;9.856;2023-03-20T12:49:48;13.02;;;6.00;;
52838;SDS011;39219;53.678;9.856;2023-03-20T12:52:19;12.68;;;5.80;;
52838;SDS011;39219;53.678;9.856;2023-03-20T12:54:59;13.55;;;6.57;;
52838;SDS011;39219;53.678;9.856;2023-03-20T12:57:28;13.43;;;6.47;;
52838;SDS011;39219;53.678;9.856;2023-03-20T13:00:04;12.93;;;6.20;;
52838;SDS011;39219;53.678;9.856;2023-03-20T13:02:38;13.93;;;6.38;;
52838;SDS011;39219;53.678;9.856;2023-03-20T13:05:09;12.70;;;6.10;;
52838;SDS011;39219;53.678;9.856;2023-03-20T13:07:43;13.55;;;5.93;;
52838;SDS011;39219;53.678;9.856;2023-03-20T13:10:18;13.25;;;5.93;;
52838;SDS011;39219;53.678;9.856;2023-03-20T13:12:48;14.20;;;5.72;;
52838;SDS011;39219;53.678;9.856;2023-03-20T13:15:20;13.88;;;5.93;;
52838;SDS011;39219;53.678;9.856;2023-03-20T13:17:49;11.32;;;5.78;;
52838;SDS011;39219;53.678;9.856;2023-03-20T13:20:23;10.32;;;5.50;;
52838;SDS011;39219;53.678;9.856;2023-03-20T13:22:53;11.63;;;5.55;;
52838;SDS011;39219;53.678;9.856;2023-03-20T13:25:26;11.35;;;5.57;;
52838;SDS011;39219;53.678;9.856;2023-03-20T13:30:25;12.85;;;6.03;;
52838;SDS011;39219;53.678;9.856;2023-03-20T13:32:54;12.55;;;5.90;;
52838;SDS011;39219;53.678;9.856;2023-03-20T13:35:26;15.95;;;6.20;;
52838;SDS011;39219;53.678;9.856;2023-03-20T13:37:54;12.27;;;6.03;;
52838;SDS011;39219;53.678;9.856;2023-03-20T13:40:22;12.70;;;5.38;;
52838;SDS011;39219;53.678;9.856;2023-03-20T13:42:50;12.00;;;5.15;;
52838;SDS011;39219;53.678;9.856;2023-03-20T13:45:32;10.15;;;5.22;;
52838;SDS011;39219;53.678;9.856;2023-03-20T13:48:01;10.68;;;5.60;;
52838;SDS011;39219;53.678;9.856;2023-03-20T13:50:32;12.00;;;5.35;;
52838;SDS011;39219;53.678;9.856;2023-03-20T13:53:00;11.75;;;5.22;;
52838;SDS011;39219;53.678;9.856;2023-03-20T13:55:28;12.63;;;5.10;;
52838;SDS011;39219;53.678;9.856;2023-03-20T13:58:01;13.65;;;6.32;;
52838;SDS011;39219;53.678;9.856;2023-03-20T14:00:34;10.47;;;5.10;;
52838;SDS011;39219;53.678;9.856;2023-03-20T14:03:04;10.93;;;5.13;;
52838;SDS011;39219;53.678;9.856;2023-03-20T14:05:34;12.70;;;5.60;;
52838;SDS011;39219;53.678;9.856;2023-03-20T14:08:19;15.38;;;5.50;;
52838;SDS011;39219;53.678;9.856;2023-03-20T14:10:45;11.37;;;5.30;;
52838;SDS011;39219;53.678;9.856;2023-03-20T14:13:13;10.88;;;5.18;;
52838;SDS011;39219;53.678;9.856;2023-03-20T14:15:44;10.57;;;5.00;;
52838;SDS011;39219;53.678;9.856;2023-03-20T14:18:13;10.52;;;4.80;;
52838;SDS011;39219;53.678;9.856;2023-03-20T14:20:41;11.98;;;4.93;;
52838;SDS011;39219;53.678;9.856;2023-03-20T14:23:14;10.85;;;5.18;;
52838;SDS011;39219;53.678;9.856;2023-03-20T14:25:41;10.30;;;5.05;;
52838;SDS011;39219;53.678;9.856;2023-03-20T14:28:21;8.65;;;4.65;;
52838;SDS011;39219;53.678;9.856;2023-03-20T14:30:50;12.98;;;5.30;;
52838;SDS011;39219;53.678;9.856;2023-03-20T14:33:40;15.18;;;5.53;;
52838;SDS011;39219;53.678;9.856;2023-03-20T14:36:10;13.85;;;5.05;;
52838;SDS011;39219;53.678;9.856;2023-03-20T14:38:38;13.40;;;5.70;;
52838;SDS011;39219;53.678;9.856;2023-03-20T14:41:10;13.38;;;5.35;;
52838;SDS011;39219;53.678;9.856;2023-03-20T14:43:39;11.55;;;5.72;;
52838;SDS011;39219;53.678;9.856;2023-03-20T14:46:13;10.45;;;5.15;;
52838;SDS011;39219;53.678;9.856;2023-03-20T14:51:13;12.25;;;5.50;;